createdAt,value
2023-02-02T07:37:40.187Z,8.14
2023-02-02T07:38:39.992Z,8.17
2023-02-02T07:39:39.989Z,8.15
2023-02-02T07:40:39.981Z,8.25
2023-02-02T07:41:39.979Z,8.22
2023-02-02T07:42:39.967Z,8.21
2023-02-02T07:43:39.936Z,8.26
2023-02-02T07:44:39.926Z,8.29
2023-02-02T07:45:40.394Z,8.26
2023-02-02T07:46:40.007Z,8.18
2023-02-02T07:47:39.902Z,8.15
2023-02-02T07:48:39.894Z,8.22
2023-02-02T07:49:39.877Z,8.20
2023-02-02T07:50:39.867Z,8.17
2023-02-02T07:51:41.661Z,8.15
2023-02-02T07:52:39.833Z,8.21
2023-02-02T07:53:40.532Z,8.21
2023-02-02T07:54:39.810Z,8.30
2023-02-02T07:55:39.795Z,8.15
2023-02-02T07:56:39.820Z,8.20
2023-02-02T07:57:39.785Z,8.14
2023-02-02T07:58:39.766Z,8.29
2023-02-02T07:59:39.774Z,8.18
2023-02-02T08:00:39.835Z,8.14
2023-02-02T08:01:39.888Z,8.20
2023-02-02T08:02:39.775Z,8.26
2023-02-02T08:03:39.706Z,8.10
2023-02-02T08:04:39.717Z,8.28
2023-02-02T08:05:39.684Z,8.17
2023-02-02T08:06:39.688Z,8.14
2023-02-02T08:07:39.677Z,8.15
2023-02-02T08:08:39.670Z,8.21
2023-02-02T08:09:39.682Z,8.12
2023-02-02T08:10:39.644Z,8.20
2023-02-02T08:11:39.656Z,8.15
2023-02-02T08:12:39.623Z,8.04
2023-02-02T08:13:39.608Z,8.11
2023-02-02T08:14:39.590Z,8.28
2023-02-02T08:15:39.570Z,8.10
2023-02-02T08:16:39.581Z,8.17
2023-02-02T08:17:39.580Z,8.14
2023-02-02T08:18:39.546Z,8.26
2023-02-02T08:19:39.540Z,8.17
2023-02-02T08:20:39.523Z,8.14
2023-02-02T08:21:39.517Z,8.26
2023-02-02T08:22:39.498Z,8.11
2023-02-02T08:23:39.519Z,8.15
2023-02-02T08:24:39.475Z,8.25
2023-02-02T08:25:39.494Z,8.15
2023-02-02T08:26:39.491Z,8.17
2023-02-02T08:27:39.448Z,8.14
2023-02-02T08:28:39.462Z,8.17
2023-02-02T08:29:39.419Z,8.20
2023-02-02T08:30:39.447Z,8.12
2023-02-02T08:31:39.512Z,8.15
2023-02-02T08:32:39.404Z,8.15
2023-02-02T08:33:39.745Z,8.17
2023-02-02T08:34:39.391Z,8.22
2023-02-02T08:35:39.348Z,8.28
2023-02-02T08:36:39.355Z,8.20
2023-02-02T08:37:39.331Z,8.20
2023-02-02T08:38:39.355Z,8.18
2023-02-02T08:39:39.315Z,8.12
2023-02-02T08:40:39.294Z,8.32
2023-02-02T08:41:39.353Z,8.17
2023-02-02T08:42:39.285Z,8.15
2023-02-02T08:43:39.274Z,8.17
2023-02-02T08:44:45.001Z,8.22
2023-02-02T08:46:03.005Z,8.32
2023-02-02T08:46:40.328Z,8.21
2023-02-02T08:47:39.216Z,8.26
2023-02-02T08:48:39.253Z,8.26
2023-02-02T08:49:39.231Z,8.22
2023-02-02T08:50:39.223Z,8.22
2023-02-02T08:51:39.168Z,8.33
2023-02-02T08:52:39.173Z,8.28
2023-02-02T08:53:39.147Z,8.21
2023-02-02T08:54:39.151Z,8.33
2023-02-02T08:55:39.149Z,8.21
2023-02-02T08:56:39.127Z,8.39
2023-02-02T08:57:39.124Z,8.39
2023-02-02T08:58:39.100Z,8.25
2023-02-02T08:59:39.081Z,8.29
2023-02-02T09:00:39.102Z,8.30
2023-02-02T09:01:39.056Z,8.26
2023-02-02T09:02:39.051Z,8.32
2023-02-02T09:03:39.047Z,8.30
2023-02-02T09:04:39.025Z,8.33
2023-02-02T09:05:39.042Z,8.28
2023-02-02T09:06:39.024Z,8.32
2023-02-02T09:07:39.002Z,8.39
2023-02-02T09:08:39.029Z,8.22
2023-02-02T09:09:38.980Z,8.33
2023-02-02T09:10:38.961Z,8.36
2023-02-02T09:11:38.977Z,8.32
2023-02-02T09:12:38.937Z,8.33
2023-02-02T09:13:38.954Z,8.36
2023-02-02T09:14:38.927Z,8.35
2023-02-02T09:15:38.919Z,8.30
2023-02-02T09:16:38.984Z,8.36
2023-02-02T09:17:38.876Z,8.40
2023-02-02T09:18:38.886Z,8.32
2023-02-02T09:19:38.856Z,8.32
2023-02-02T09:20:38.854Z,8.26
2023-02-02T09:21:38.863Z,8.28
2023-02-02T09:22:38.831Z,8.40
2023-02-02T09:23:38.821Z,8.39
2023-02-02T09:24:38.819Z,8.42
2023-02-02T09:25:38.792Z,8.36
2023-02-02T09:26:38.940Z,8.45
2023-02-02T09:27:38.779Z,8.47
2023-02-02T09:28:39.427Z,8.48
2023-02-02T09:29:38.772Z,8.45
2023-02-02T09:30:38.806Z,8.51
2023-02-02T09:31:38.774Z,8.53
2023-02-02T09:32:38.712Z,8.50
2023-02-02T09:33:38.699Z,8.54
2023-02-02T09:34:40.153Z,8.45
2023-02-02T09:35:38.675Z,8.58
2023-02-02T09:36:38.700Z,8.62
2023-02-02T09:37:38.671Z,8.51
2023-02-02T09:38:38.665Z,8.58
2023-02-02T09:39:38.629Z,8.51
2023-02-02T09:40:38.635Z,8.58
2023-02-02T09:41:38.656Z,8.57
2023-02-02T09:42:38.613Z,8.55
2023-02-02T09:43:38.584Z,8.60
2023-02-02T09:44:38.580Z,8.60
2023-02-02T09:45:38.675Z,8.51
2023-02-02T09:46:38.588Z,8.60
2023-02-02T09:47:38.542Z,8.54
2023-02-02T09:48:38.534Z,8.63
2023-02-02T09:49:38.531Z,8.62
2023-02-02T09:50:38.519Z,8.63
2023-02-02T09:51:38.539Z,8.68
2023-02-02T09:52:38.523Z,8.55
2023-02-02T09:53:53.004Z,8.58
2023-02-02T09:54:39.502Z,8.65
2023-02-02T09:55:38.469Z,8.62
2023-02-02T09:56:38.454Z,8.62
2023-02-02T09:57:38.456Z,8.57
2023-02-02T09:58:38.420Z,8.47
2023-02-02T09:59:38.421Z,8.63
2023-02-02T10:00:38.411Z,8.68
2023-02-02T10:01:38.478Z,8.58
2023-02-02T10:02:38.403Z,8.57
2023-02-02T10:03:38.418Z,8.57
2023-02-02T10:04:38.354Z,8.63
2023-02-02T10:05:38.350Z,8.57
2023-02-02T10:06:38.347Z,8.60
2023-02-02T10:07:38.325Z,8.62
2023-02-02T10:08:38.311Z,8.48
2023-02-02T10:09:38.293Z,8.51
2023-02-02T10:10:38.300Z,8.48
2023-02-02T10:11:38.286Z,8.45
2023-02-02T10:12:38.287Z,8.62
2023-02-02T10:13:38.252Z,8.42
2023-02-02T10:14:38.329Z,8.44
2023-02-02T10:15:38.299Z,8.48
2023-02-02T10:16:38.215Z,8.44
2023-02-02T10:17:38.248Z,8.44
2023-02-02T10:18:38.199Z,8.40
2023-02-02T10:19:38.185Z,8.50
2023-02-02T10:20:38.183Z,8.53
2023-02-02T10:21:38.181Z,8.51
2023-02-02T10:22:38.172Z,8.45
2023-02-02T10:23:38.163Z,8.53
2023-02-02T10:24:38.126Z,8.44
2023-02-02T10:25:38.126Z,8.44
2023-02-02T10:26:38.213Z,8.45
2023-02-02T10:27:38.093Z,8.47
2023-02-02T10:28:38.109Z,8.50
2023-02-02T10:29:48.617Z,8.57
2023-02-02T10:30:39.118Z,8.54
2023-02-02T10:31:38.177Z,8.51
2023-02-02T10:32:38.060Z,8.53
2023-02-02T10:33:38.081Z,8.47
2023-02-02T10:34:38.026Z,8.37
2023-02-02T10:35:38.009Z,8.45
2023-02-02T10:36:37.989Z,8.57
2023-02-02T10:37:38.021Z,8.57
2023-02-02T10:38:38.057Z,8.53
2023-02-02T10:39:38.093Z,8.58
2023-02-02T10:40:37.970Z,8.60
2023-02-02T10:41:37.951Z,8.55
2023-02-02T10:42:37.933Z,8.58
2023-02-02T10:43:37.940Z,8.60
2023-02-02T10:44:37.927Z,8.63
2023-02-02T10:45:37.908Z,8.57
2023-02-02T10:46:37.918Z,8.68
2023-02-02T10:47:37.879Z,8.69
2023-02-02T10:48:37.875Z,8.68
2023-02-02T10:49:37.948Z,8.62
2023-02-02T10:50:37.878Z,8.69
2023-02-02T10:51:37.832Z,8.71
2023-02-02T10:52:37.837Z,8.72
2023-02-02T10:53:37.811Z,8.71
2023-02-02T10:54:53.879Z,8.71
2023-02-02T10:55:38.802Z,8.66
2023-02-02T10:56:37.826Z,8.71
2023-02-02T10:57:38.694Z,8.81
2023-02-02T10:58:37.755Z,8.86
2023-02-02T10:59:37.761Z,8.79
2023-02-02T11:00:37.739Z,8.88
2023-02-02T11:01:37.860Z,8.90
2023-02-02T11:02:37.790Z,8.96
2023-02-02T11:03:37.719Z,8.94
2023-02-02T11:04:37.690Z,8.86
2023-02-02T11:05:37.709Z,8.91
2023-02-02T11:06:37.652Z,8.76
2023-02-02T11:07:37.644Z,8.86
2023-02-02T11:08:37.646Z,8.91
2023-02-02T11:09:37.644Z,8.90
2023-02-02T11:10:37.609Z,8.94
2023-02-02T11:11:37.602Z,8.88
2023-02-02T11:12:37.587Z,9.01
2023-02-02T11:13:37.594Z,8.99
2023-02-02T11:14:45.264Z,9.04
2023-02-02T11:15:38.612Z,9.02
2023-02-02T11:16:43.150Z,9.12
2023-02-02T11:17:38.533Z,9.13
2023-02-02T11:18:37.518Z,9.04
2023-02-02T11:19:37.528Z,9.15
2023-02-02T11:20:37.495Z,9.13
2023-02-02T11:21:37.523Z,9.01
2023-02-02T11:22:37.487Z,9.21
2023-02-02T11:23:37.480Z,9.15
2023-02-02T11:24:37.478Z,9.16
2023-02-02T11:25:37.452Z,9.09
2023-02-02T11:26:37.466Z,9.13
2023-02-02T11:27:37.436Z,9.23
2023-02-02T11:28:37.407Z,9.15
2023-02-02T11:29:37.465Z,9.15
2023-02-02T11:30:37.473Z,9.16
2023-02-02T11:31:37.501Z,9.16
2023-02-02T11:32:37.362Z,9.24
2023-02-02T11:33:37.382Z,9.20
2023-02-02T11:34:37.341Z,9.20
2023-02-02T11:35:37.372Z,9.24
2023-02-02T11:36:37.326Z,9.24
2023-02-02T11:37:37.335Z,9.24
2023-02-02T11:38:37.322Z,9.23
2023-02-02T11:39:37.295Z,9.30
2023-02-02T11:40:37.309Z,9.20
2023-02-02T11:41:37.281Z,9.21
2023-02-02T11:42:37.271Z,9.30
2023-02-02T11:43:37.246Z,9.34
2023-02-02T11:44:37.228Z,9.35
2023-02-02T11:45:37.229Z,9.32
2023-02-02T11:46:37.281Z,9.35
2023-02-02T11:47:37.197Z,9.30
2023-02-02T11:48:37.192Z,9.35
2023-02-02T11:49:37.193Z,9.35
2023-02-02T11:50:37.170Z,9.32
2023-02-02T11:51:37.185Z,9.40
2023-02-02T11:52:37.138Z,9.35
2023-02-02T11:53:37.150Z,9.42
2023-02-02T11:54:37.136Z,9.38
2023-02-02T11:55:37.110Z,9.42
2023-02-02T11:56:37.103Z,9.43
2023-02-02T11:57:37.092Z,9.46
2023-02-02T11:58:37.068Z,9.46
2023-02-02T11:59:37.083Z,9.46
2023-02-02T12:00:37.065Z,9.49
2023-02-02T12:01:37.109Z,9.53
2023-02-02T12:02:37.047Z,9.56
2023-02-02T12:03:37.034Z,9.52
2023-02-02T12:04:37.045Z,9.57
2023-02-02T12:05:37.033Z,9.64
2023-02-02T12:06:36.994Z,9.68
2023-02-02T12:07:36.984Z,9.73
2023-02-02T12:08:36.961Z,9.75
2023-02-02T12:09:36.986Z,9.76
2023-02-02T12:10:36.946Z,9.78
2023-02-02T12:11:36.961Z,9.73
2023-02-02T12:12:36.913Z,9.78
2023-02-02T12:13:36.905Z,9.79
2023-02-02T12:14:36.889Z,9.73
2023-02-02T12:15:36.900Z,9.88
2023-02-02T12:16:37.033Z,9.79
2023-02-02T12:17:36.875Z,9.76
2023-02-02T12:18:36.873Z,9.88
2023-02-02T12:19:36.864Z,9.93
2023-02-02T12:20:36.850Z,9.94
2023-02-02T12:21:36.828Z,9.83
2023-02-02T12:22:36.815Z,9.94
2023-02-02T12:23:36.820Z,9.86
2023-02-02T12:24:36.779Z,9.89
2023-02-02T12:25:36.827Z,9.91
2023-02-02T12:26:36.820Z,9.88
2023-02-02T12:27:36.746Z,9.88
2023-02-02T12:28:36.763Z,9.91
2023-02-02T12:29:36.737Z,9.94
2023-02-02T12:30:36.738Z,10.03
2023-02-02T12:31:36.760Z,10.10
2023-02-02T12:32:36.700Z,10.04
2023-02-02T12:33:36.696Z,10.01
2023-02-02T12:34:36.704Z,10.01
2023-02-02T12:35:36.655Z,9.97
2023-02-02T12:36:36.641Z,10.06
2023-02-02T12:37:36.659Z,10.14
2023-02-02T12:38:36.620Z,10.06
2023-02-02T12:39:36.627Z,10.14
2023-02-02T12:40:36.617Z,10.09
2023-02-02T12:41:36.695Z,10.18
2023-02-02T12:42:36.585Z,10.21
2023-02-02T12:43:36.579Z,10.28
2023-02-02T12:44:36.573Z,10.25
2023-02-02T12:45:36.602Z,10.25
2023-02-02T12:46:36.534Z,10.24
2023-02-02T12:47:36.535Z,10.26
2023-02-02T12:48:36.519Z,10.21
2023-02-02T12:49:36.523Z,10.12
2023-02-02T12:50:36.494Z,10.24
2023-02-02T12:51:36.488Z,10.30
2023-02-02T12:52:36.479Z,10.34
2023-02-02T12:53:36.466Z,10.33
2023-02-02T12:54:49.379Z,10.43
2023-02-02T12:55:37.429Z,10.39
2023-02-02T12:56:36.441Z,10.42
2023-02-02T12:57:36.452Z,10.43
2023-02-02T12:58:36.405Z,10.43
2023-02-02T12:59:36.399Z,10.56
2023-02-02T13:00:36.369Z,10.62
2023-02-02T13:01:36.376Z,10.53
2023-02-02T13:02:36.408Z,10.42
2023-02-02T13:03:36.368Z,10.56
2023-02-02T13:04:36.325Z,10.60
2023-02-02T13:05:36.319Z,10.68
2023-02-02T13:06:36.315Z,10.70
2023-02-02T13:07:36.311Z,10.58
2023-02-02T13:08:36.297Z,10.56
2023-02-02T13:09:36.286Z,10.59
2023-02-02T13:10:36.269Z,10.59
2023-02-02T13:11:36.270Z,10.52
2023-02-02T13:12:36.253Z,10.52
2023-02-02T13:13:36.283Z,10.63
2023-02-02T13:14:36.224Z,10.63
2023-02-02T13:15:36.220Z,10.70
2023-02-02T13:16:36.220Z,10.73
2023-02-02T13:17:36.199Z,10.66
2023-02-02T13:18:36.182Z,10.60
2023-02-02T13:19:36.169Z,10.58
2023-02-02T13:20:36.162Z,10.70
2023-02-02T13:21:36.149Z,10.59
2023-02-02T13:22:36.151Z,10.65
2023-02-02T13:23:36.148Z,10.62
2023-02-02T13:24:36.105Z,10.62
2023-02-02T13:25:36.109Z,10.59
2023-02-02T13:26:36.201Z,10.68
2023-02-02T13:27:36.082Z,10.73
2023-02-02T13:28:36.089Z,10.73
2023-02-02T13:29:37.905Z,10.71
2023-02-02T13:30:37.220Z,10.62
2023-02-02T13:31:36.180Z,10.73
2023-02-02T13:32:36.013Z,10.78
2023-02-02T13:33:36.014Z,10.77
2023-02-02T13:34:36.002Z,10.74
2023-02-02T13:35:35.978Z,10.60
2023-02-02T13:36:35.968Z,10.63
2023-02-02T13:37:35.956Z,10.76
2023-02-02T13:38:35.953Z,10.63
2023-02-02T13:39:35.950Z,10.56
2023-02-02T13:40:35.936Z,10.65
2023-02-02T13:41:35.911Z,10.60
2023-02-02T13:42:38.070Z,10.47
2023-02-02T13:43:35.901Z,10.56
2023-02-02T13:44:35.903Z,10.56
2023-02-02T13:45:35.958Z,10.44
2023-02-02T13:46:35.864Z,10.59
2023-02-02T13:47:35.848Z,10.46
2023-02-02T13:48:35.827Z,10.47
2023-02-02T13:49:35.840Z,10.51
2023-02-02T13:50:35.824Z,10.55
2023-02-02T13:51:35.798Z,10.53
2023-02-02T13:52:35.797Z,10.59
2023-02-02T13:53:35.776Z,10.56
2023-02-02T13:54:35.784Z,10.65
2023-02-02T13:55:35.757Z,10.62
2023-02-02T13:56:35.740Z,10.65
2023-02-02T13:57:35.744Z,10.62
2023-02-02T13:58:35.728Z,10.71
2023-02-02T13:59:35.722Z,10.56
2023-02-02T14:00:35.727Z,10.47
2023-02-02T14:01:35.764Z,10.52
2023-02-02T14:02:35.785Z,10.60
2023-02-02T14:03:35.665Z,10.53
2023-02-02T14:04:35.660Z,10.58
2023-02-02T14:05:35.672Z,10.55
2023-02-02T14:06:35.642Z,10.58
2023-02-02T14:07:35.633Z,10.60
2023-02-02T14:08:35.606Z,10.65
2023-02-02T14:09:35.598Z,10.62
2023-02-02T14:10:35.615Z,10.60
2023-02-02T14:11:35.588Z,10.65
2023-02-02T14:12:35.593Z,10.65
2023-02-02T14:13:35.553Z,10.59
2023-02-02T14:14:35.535Z,10.53
2023-02-02T14:15:35.573Z,10.73
2023-02-02T14:16:35.530Z,10.65
2023-02-02T14:17:35.530Z,10.59
2023-02-02T14:18:35.505Z,10.55
2023-02-02T14:19:35.484Z,10.60
2023-02-02T14:20:35.486Z,10.70
2023-02-02T14:21:35.476Z,10.56
2023-02-02T14:22:35.447Z,10.53
2023-02-02T14:23:35.453Z,10.62
2023-02-02T14:24:35.442Z,10.59
2023-02-02T14:25:35.436Z,10.58
2023-02-02T14:26:35.720Z,10.65
2023-02-02T14:27:35.575Z,10.63
2023-02-02T14:28:35.399Z,10.55
2023-02-02T14:29:35.391Z,10.59
2023-02-02T14:30:35.402Z,10.63
2023-02-02T14:31:35.474Z,10.66
2023-02-02T14:32:35.345Z,10.65
2023-02-02T14:33:35.348Z,10.59
2023-02-02T14:34:35.360Z,10.58
2023-02-02T14:35:35.306Z,10.53
2023-02-02T14:36:35.291Z,10.58
2023-02-02T14:37:35.321Z,10.55
2023-02-02T14:38:35.271Z,10.58
2023-02-02T14:39:35.251Z,10.46
2023-02-02T14:40:35.271Z,10.52
2023-02-02T14:41:35.251Z,10.62
2023-02-02T14:42:35.258Z,10.60
2023-02-02T14:43:35.209Z,10.51
2023-02-02T14:44:35.201Z,10.37
2023-02-02T14:45:35.197Z,10.47
2023-02-02T14:46:35.305Z,10.43
2023-02-02T14:47:35.176Z,10.58
2023-02-02T14:48:35.191Z,10.53
2023-02-02T14:49:35.183Z,10.58
2023-02-02T14:50:35.149Z,10.43
2023-02-02T14:51:35.175Z,10.44
2023-02-02T14:52:35.139Z,10.46
2023-02-02T14:53:35.101Z,10.52
2023-02-02T14:54:35.088Z,10.47
2023-02-02T14:55:35.088Z,10.51
2023-02-02T14:56:35.079Z,10.47
2023-02-02T14:57:35.081Z,10.55
2023-02-02T14:58:35.074Z,10.44
2023-02-02T14:59:35.045Z,10.46
2023-02-02T15:00:35.047Z,10.42
2023-02-02T15:01:35.047Z,10.39
2023-02-02T15:02:35.098Z,10.46
2023-02-02T15:03:34.988Z,10.34
2023-02-02T15:04:34.977Z,10.39
2023-02-02T15:05:34.984Z,10.42
2023-02-02T15:06:34.953Z,10.36
2023-02-02T15:07:34.966Z,10.33
2023-02-02T15:08:34.958Z,10.36
2023-02-02T15:09:34.930Z,10.33
2023-02-02T15:10:34.911Z,10.32
2023-02-02T15:11:34.914Z,10.24
2023-02-02T15:12:34.917Z,10.34
2023-02-02T15:13:34.870Z,10.28
2023-02-02T15:14:34.863Z,10.22
2023-02-02T15:15:34.868Z,10.26
2023-02-02T15:16:34.854Z,10.28
2023-02-02T15:17:34.867Z,10.21
2023-02-02T15:18:34.831Z,10.25
2023-02-02T15:19:34.803Z,10.24
2023-02-02T15:20:34.806Z,10.19
2023-02-02T15:21:34.916Z,10.22
2023-02-02T15:22:34.784Z,10.24
2023-02-02T15:23:34.772Z,10.24
2023-02-02T15:24:34.764Z,10.18
2023-02-02T15:25:34.739Z,10.19
2023-02-02T15:26:34.781Z,10.21
2023-02-02T15:27:37.271Z,10.19
2023-02-02T15:28:34.731Z,10.28
2023-02-02T15:29:34.705Z,10.19
2023-02-02T15:30:34.736Z,10.21
2023-02-02T15:31:34.754Z,10.24
2023-02-02T15:32:34.685Z,10.25
2023-02-02T15:33:34.649Z,10.22
2023-02-02T15:34:34.652Z,10.24
2023-02-02T15:35:36.083Z,10.25
2023-02-02T15:36:34.635Z,10.19
2023-02-02T15:37:34.641Z,10.22
2023-02-02T15:38:34.596Z,10.28
2023-02-02T15:39:34.582Z,10.24
2023-02-02T15:40:34.587Z,10.25
2023-02-02T15:41:34.580Z,10.24
2023-02-02T15:42:34.566Z,10.19
2023-02-02T15:43:34.547Z,10.18
2023-02-02T15:44:34.526Z,10.21
2023-02-02T15:45:34.901Z,10.10
2023-02-02T15:46:34.554Z,10.24
2023-02-02T15:47:34.503Z,10.15
2023-02-02T15:48:34.483Z,10.14
2023-02-02T15:49:35.825Z,10.09
2023-02-02T15:50:34.460Z,10.14
2023-02-02T15:51:34.442Z,10.14
2023-02-02T15:52:34.438Z,10.12
2023-02-02T15:53:34.484Z,10.12
2023-02-02T15:54:34.428Z,10.10
2023-02-02T15:55:34.419Z,10.06
2023-02-02T15:56:34.391Z,10.17
2023-02-02T15:57:34.374Z,10.07
2023-02-02T15:58:34.386Z,10.22
2023-02-02T15:59:34.365Z,10.19
2023-02-02T16:00:34.396Z,10.07
2023-02-02T16:01:34.333Z,10.21
2023-02-02T16:02:34.335Z,10.19
2023-02-02T16:03:34.319Z,10.12
2023-02-02T16:04:34.368Z,10.12
2023-02-02T16:05:34.285Z,10.09
2023-02-02T16:06:34.278Z,10.14
2023-02-02T16:07:34.281Z,10.04
2023-02-02T16:08:34.294Z,10.07
2023-02-02T16:09:34.290Z,10.09
2023-02-02T16:10:34.298Z,10.09
2023-02-02T16:11:34.224Z,10.10
2023-02-02T16:12:34.376Z,10.12
2023-02-02T16:13:34.222Z,10.10
2023-02-02T16:14:34.201Z,10.07
2023-02-02T16:15:34.188Z,9.97
2023-02-02T16:16:34.221Z,10.12
2023-02-02T16:17:34.161Z,10.14
2023-02-02T16:18:34.159Z,10.09
2023-02-02T16:19:34.157Z,10.09
2023-02-02T16:20:34.120Z,10.10
2023-02-02T16:21:34.124Z,10.07
2023-02-02T16:22:34.108Z,10.10
2023-02-02T16:23:34.109Z,10.14
2023-02-02T16:24:34.073Z,10.06
2023-02-02T16:25:34.081Z,10.07
2023-02-02T16:26:34.155Z,10.03
2023-02-02T16:27:34.048Z,10.04
2023-02-02T16:28:34.040Z,9.99
2023-02-02T16:29:34.026Z,10.06
2023-02-02T16:30:34.050Z,10.00
2023-02-02T16:31:34.012Z,10.04
2023-02-02T16:32:33.983Z,10.01
2023-02-02T16:33:33.997Z,10.10
2023-02-02T16:34:33.961Z,9.99
2023-02-02T16:35:33.971Z,10.04
2023-02-02T16:36:33.954Z,10.00
2023-02-02T16:37:33.923Z,10.09
2023-02-02T16:38:33.959Z,10.00
2023-02-02T16:39:33.907Z,10.01
2023-02-02T16:40:33.908Z,10.17
2023-02-02T16:41:34.069Z,10.03
2023-02-02T16:42:33.883Z,10.06
2023-02-02T16:43:33.930Z,10.06
2023-02-02T16:44:33.871Z,10.04
2023-02-02T16:45:34.209Z,10.04
2023-02-02T16:46:33.825Z,10.06
2023-02-02T16:47:33.833Z,10.00
2023-02-02T16:48:33.817Z,10.03
2023-02-02T16:49:33.817Z,10.00
2023-02-02T16:50:33.795Z,10.06
2023-02-02T16:51:34.207Z,10.14
2023-02-02T16:52:33.765Z,10.01
2023-02-02T16:53:33.742Z,10.06
2023-02-02T16:54:33.760Z,10.04
2023-02-02T16:55:47.824Z,10.06
2023-02-02T16:56:34.724Z,10.04
2023-02-02T16:57:34.501Z,10.04
2023-02-02T16:58:33.744Z,10.07
2023-02-02T16:59:33.704Z,10.03
2023-02-02T17:00:33.667Z,9.99
2023-02-02T17:01:33.715Z,9.96
2023-02-02T17:02:33.754Z,10.10
2023-02-02T17:03:33.687Z,10.03
2023-02-02T17:04:33.650Z,10.17
2023-02-02T17:05:33.621Z,10.12
2023-02-02T17:06:50.106Z,10.04
2023-02-02T17:07:34.667Z,10.10
2023-02-02T17:08:33.607Z,10.14
2023-02-02T17:09:35.673Z,10.10
2023-02-02T17:10:33.579Z,10.14
2023-02-02T17:11:33.540Z,10.01
2023-02-02T17:12:35.398Z,10.04
2023-02-02T17:13:33.568Z,10.01
2023-02-02T17:14:33.524Z,10.09
2023-02-02T17:15:35.039Z,10.06
2023-02-02T17:16:33.508Z,10.10
2023-02-02T17:17:33.490Z,10.14
2023-02-02T17:18:33.516Z,10.15
2023-02-02T17:19:33.461Z,10.07
2023-02-02T17:20:33.440Z,10.21
2023-02-02T17:21:33.909Z,10.09
2023-02-02T17:22:33.454Z,10.19
2023-02-02T17:23:33.418Z,10.22
2023-02-02T17:24:33.421Z,10.24
2023-02-02T17:25:33.401Z,10.15
2023-02-02T17:26:33.411Z,10.18
2023-02-02T17:27:34.147Z,10.24
2023-02-02T17:28:33.358Z,10.21
2023-02-02T17:29:33.374Z,10.22
2023-02-02T17:30:33.391Z,10.14
2023-02-02T17:31:33.483Z,10.17
2023-02-02T17:32:33.312Z,10.17
2023-02-02T17:33:34.245Z,10.15
2023-02-02T17:34:33.303Z,10.21
2023-02-02T17:35:51.581Z,10.24
2023-02-02T17:36:34.274Z,10.04
2023-02-02T17:37:33.823Z,10.19
2023-02-02T17:38:33.265Z,10.18
2023-02-02T17:39:33.223Z,10.10
2023-02-02T17:40:33.238Z,10.14
2023-02-02T17:41:33.229Z,10.10
2023-02-02T17:42:33.215Z,9.97
2023-02-02T17:43:33.213Z,10.15
2023-02-02T17:44:33.182Z,10.14
2023-02-02T17:45:34.147Z,10.07
2023-02-02T17:46:33.324Z,10.07
2023-02-02T17:47:33.136Z,10.17
2023-02-02T17:48:33.147Z,10.19
2023-02-02T17:49:33.123Z,10.22
2023-02-02T17:50:33.104Z,10.15
2023-02-02T17:51:33.131Z,10.17
2023-02-02T17:52:33.097Z,10.22
2023-02-02T17:53:33.583Z,10.15
2023-02-02T17:54:33.073Z,10.01
2023-02-02T17:55:33.055Z,10.04
2023-02-02T17:56:33.116Z,10.09
2023-02-02T17:57:33.115Z,10.04
2023-02-02T17:58:33.028Z,10.10
2023-02-02T17:59:33.016Z,10.10
2023-02-02T18:00:33.006Z,10.00
2023-02-02T18:01:33.105Z,9.93
2023-02-02T18:02:33.053Z,9.85
2023-02-02T18:03:34.306Z,9.99
2023-02-02T18:04:32.944Z,10.03
2023-02-02T18:05:32.935Z,9.85
2023-02-02T18:06:32.927Z,9.89
2023-02-02T18:07:32.938Z,9.88
2023-02-02T18:08:32.934Z,9.85
2023-02-02T18:09:33.868Z,9.89
2023-02-02T18:10:32.883Z,9.82
2023-02-02T18:11:32.876Z,9.83
2023-02-02T18:12:32.872Z,9.82
2023-02-02T18:13:32.853Z,9.75
2023-02-02T18:14:32.846Z,9.78
2023-02-02T18:15:32.862Z,9.76
2023-02-02T18:16:32.833Z,9.85
2023-02-02T18:17:34.113Z,9.79
2023-02-02T18:18:32.818Z,9.71
2023-02-02T18:19:32.772Z,9.67
2023-02-02T18:20:32.767Z,9.70
2023-02-02T18:21:32.791Z,9.67
2023-02-02T18:22:32.760Z,9.53
2023-02-02T18:23:32.761Z,9.60
2023-02-02T18:24:32.738Z,9.67
2023-02-02T18:25:32.712Z,9.64
2023-02-02T18:26:32.828Z,9.63
2023-02-02T18:27:32.719Z,9.57
2023-02-02T18:28:32.704Z,9.52
2023-02-02T18:29:33.017Z,9.53
2023-02-02T18:30:32.664Z,9.48
2023-02-02T18:31:32.830Z,9.49
2023-02-02T18:32:32.630Z,9.46
2023-02-02T18:33:32.656Z,9.42
2023-02-02T18:34:32.608Z,9.46
2023-02-02T18:35:32.608Z,9.48
2023-02-02T18:36:32.619Z,9.45
2023-02-02T18:37:32.592Z,9.46
2023-02-02T18:38:32.589Z,9.53
2023-02-02T18:39:32.547Z,9.39
2023-02-02T18:40:32.560Z,9.43
2023-02-02T18:41:32.530Z,9.48
2023-02-02T18:42:32.521Z,9.53
2023-02-02T18:43:32.527Z,9.34
2023-02-02T18:44:32.497Z,9.45
2023-02-02T18:45:32.479Z,9.39
2023-02-02T18:46:32.511Z,9.48
2023-02-02T18:47:32.472Z,9.38
2023-02-02T18:48:32.507Z,9.45
2023-02-02T18:49:32.476Z,9.28
2023-02-02T18:50:32.441Z,9.30
2023-02-02T18:51:32.442Z,9.24
2023-02-02T18:52:32.411Z,9.24
2023-02-02T18:53:32.422Z,9.20
2023-02-02T18:54:32.417Z,9.28
2023-02-02T18:55:32.378Z,9.18
2023-02-02T18:56:32.356Z,9.21
2023-02-02T18:57:32.375Z,9.27
2023-02-02T18:58:32.353Z,9.12
2023-02-02T18:59:32.347Z,9.18
2023-02-02T19:00:32.314Z,9.10
2023-02-02T19:01:32.387Z,9.09
2023-02-02T19:02:32.312Z,9.10
2023-02-02T19:03:32.315Z,9.05
2023-02-02T19:04:32.279Z,9.09
2023-02-02T19:05:32.299Z,9.13
2023-02-02T19:06:32.255Z,9.10
2023-02-02T19:07:32.249Z,9.06
2023-02-02T19:08:33.752Z,9.13
2023-02-02T19:09:32.228Z,9.18
2023-02-02T19:10:32.211Z,9.21
2023-02-02T19:11:32.193Z,9.15
2023-02-02T19:12:32.189Z,9.20
2023-02-02T19:13:32.195Z,9.27
2023-02-02T19:14:32.162Z,9.20
2023-02-02T19:15:32.160Z,9.12
2023-02-02T19:16:32.189Z,9.18
2023-02-02T19:17:32.133Z,9.25
2023-02-02T19:18:32.141Z,9.24
2023-02-02T19:19:32.138Z,9.21
2023-02-02T19:20:32.214Z,9.27
2023-02-02T19:21:32.112Z,9.24
2023-02-02T19:22:32.066Z,9.25
2023-02-02T19:23:32.082Z,9.28
2023-02-02T19:24:32.062Z,9.24
2023-02-02T19:25:32.035Z,9.30
2023-02-02T19:26:32.131Z,9.32
2023-02-02T19:27:32.028Z,9.32
2023-02-02T19:28:32.022Z,9.31
2023-02-02T19:29:32.020Z,9.40
2023-02-02T19:30:32.067Z,9.46
2023-02-02T19:31:32.096Z,9.39
2023-02-02T19:32:31.963Z,9.45
2023-02-02T19:33:31.972Z,9.38
2023-02-02T19:34:31.940Z,9.32
2023-02-02T19:35:31.925Z,9.32
2023-02-02T19:36:31.918Z,9.50
2023-02-02T19:37:31.920Z,9.58
2023-02-02T19:38:31.893Z,9.46
2023-02-02T19:39:31.909Z,9.53
2023-02-02T19:40:31.865Z,9.49
2023-02-02T19:41:31.869Z,9.49
2023-02-02T19:42:31.836Z,9.53
2023-02-02T19:43:31.854Z,9.53
2023-02-02T19:44:31.838Z,9.53
2023-02-02T19:45:31.837Z,9.53
2023-02-02T19:46:31.828Z,9.56
2023-02-02T19:47:31.795Z,9.50
2023-02-02T19:48:31.789Z,9.60
2023-02-02T19:49:31.782Z,9.58
2023-02-02T19:50:31.746Z,9.57
2023-02-02T19:51:31.752Z,9.68
2023-02-02T19:52:31.741Z,9.53
2023-02-02T19:53:31.743Z,9.56
2023-02-02T19:54:31.720Z,9.61
2023-02-02T19:55:31.695Z,9.56
2023-02-02T19:56:31.739Z,9.61
2023-02-02T19:57:31.672Z,9.66
2023-02-02T19:58:31.661Z,9.64
2023-02-02T19:59:31.685Z,9.64
2023-02-02T20:00:31.684Z,9.68
2023-02-02T20:01:31.642Z,9.67
2023-02-02T20:02:31.612Z,9.58
2023-02-02T20:03:31.616Z,9.60
2023-02-02T20:04:31.603Z,9.67
2023-02-02T20:05:31.582Z,9.64
2023-02-02T20:06:31.580Z,9.63
2023-02-02T20:07:31.575Z,9.60
2023-02-02T20:08:31.551Z,9.71
2023-02-02T20:09:31.582Z,9.71
2023-02-02T20:10:31.543Z,9.67
2023-02-02T20:11:31.514Z,9.66
2023-02-02T20:12:31.503Z,9.68
2023-02-02T20:13:31.507Z,9.73
2023-02-02T20:14:31.507Z,9.73
2023-02-02T20:15:31.486Z,9.76
2023-02-02T20:16:31.517Z,9.82
2023-02-02T20:17:31.460Z,9.67
2023-02-02T20:18:31.432Z,9.70
2023-02-02T20:19:31.453Z,9.68
2023-02-02T20:20:31.414Z,9.75
2023-02-02T20:21:31.413Z,9.67
2023-02-02T20:22:31.398Z,9.78
2023-02-02T20:23:31.397Z,9.82
2023-02-02T20:24:31.378Z,9.78
2023-02-02T20:25:31.401Z,9.67
